createdAt,value
2018-09-06T00:00:10.676Z,17.87
2018-09-06T00:02:45.075Z,20.30
2018-09-06T00:05:19.579Z,23.23
2018-09-06T00:07:53.975Z,18.07
2018-09-06T00:10:28.390Z,24.03
2018-09-06T00:13:02.792Z,18.43
2018-09-06T00:15:37.197Z,17.57
2018-09-06T00:18:11.591Z,17.70
2018-09-06T00:20:45.982Z,17.00
2018-09-06T00:23:20.362Z,19.10
2018-09-06T00:25:54.695Z,17.13
2018-09-06T00:28:29.110Z,18.83
2018-09-06T00:31:03.483Z,19.33
2018-09-06T00:33:37.879Z,20.27
2018-09-06T00:36:12.236Z,21.07
2018-09-06T00:38:46.618Z,25.17
2018-09-06T00:41:21.003Z,21.77
2018-09-06T00:43:55.380Z,20.33
2018-09-06T00:46:29.852Z,23.03
2018-09-06T00:49:04.306Z,19.70
2018-09-06T00:51:38.721Z,18.10
2018-09-06T00:54:13.141Z,18.63
2018-09-06T00:56:47.514Z,21.23
2018-09-06T00:59:24.682Z,17.37
2018-09-06T01:01:59.055Z,17.30
2018-09-06T01:04:33.436Z,20.10
2018-09-06T01:07:07.843Z,17.93
2018-09-06T01:09:42.317Z,18.10
2018-09-06T01:12:16.683Z,14.73
2018-09-06T01:14:51.102Z,17.47
2018-09-06T01:17:25.511Z,16.23
2018-09-06T01:19:59.944Z,22.33
2018-09-06T01:22:34.474Z,15.63
2018-09-06T01:25:08.922Z,19.33
2018-09-06T01:27:43.353Z,17.20
2018-09-06T01:30:17.764Z,18.80
2018-09-06T01:32:52.147Z,20.77
2018-09-06T01:35:26.658Z,19.57
2018-09-06T01:38:01.071Z,20.67
2018-09-06T01:40:35.422Z,19.87
2018-09-06T01:43:09.903Z,21.17
2018-09-06T01:45:44.293Z,18.90
2018-09-06T01:48:18.721Z,18.73
2018-09-06T01:50:53.138Z,17.93
2018-09-06T01:53:27.912Z,20.10
2018-09-06T01:56:02.320Z,17.80
2018-09-06T01:58:36.696Z,20.13
2018-09-06T02:01:11.094Z,20.70
2018-09-06T02:03:45.808Z,20.70
2018-09-06T02:06:20.174Z,17.03
2018-09-06T02:08:54.665Z,17.03
2018-09-06T02:11:29.064Z,20.17
2018-09-06T02:14:03.469Z,20.67
2018-09-06T02:16:37.881Z,19.57
2018-09-06T02:19:12.261Z,19.80
2018-09-06T02:21:46.790Z,23.40
2018-09-06T02:24:21.306Z,22.27
2018-09-06T02:26:55.659Z,19.33
2018-09-06T02:29:30.032Z,23.20
2018-09-06T02:32:04.446Z,20.63
2018-09-06T02:34:38.826Z,18.40
2018-09-06T02:37:13.194Z,19.33
2018-09-06T02:39:47.530Z,18.13
2018-09-06T02:42:21.890Z,16.63
2018-09-06T02:44:56.257Z,22.07
2018-09-06T02:47:30.645Z,20.67
2018-09-06T02:50:10.281Z,19.97
2018-09-06T02:52:44.614Z,19.20
2018-09-06T02:55:19.055Z,17.53
2018-09-06T02:57:53.536Z,19.07
2018-09-06T03:00:29.531Z,19.73
2018-09-06T03:03:03.966Z,16.93
2018-09-06T03:05:38.353Z,18.40
2018-09-06T03:08:12.715Z,14.87
2018-09-06T03:10:48.963Z,17.40
2018-09-06T03:13:23.325Z,17.43
2018-09-06T03:15:57.819Z,19.37
2018-09-06T03:18:32.194Z,15.80
2018-09-06T03:21:06.742Z,19.63
2018-09-06T03:23:41.072Z,17.13
2018-09-06T03:26:16.446Z,18.13
2018-09-06T03:28:51.434Z,16.37
2018-09-06T03:31:25.762Z,17.37
2018-09-06T03:34:00.107Z,17.70
2018-09-06T03:36:34.597Z,17.00
2018-09-06T03:39:10.076Z,17.17
2018-09-06T03:41:44.464Z,16.37
2018-09-06T03:44:18.821Z,15.73
2018-09-06T03:46:53.164Z,18.27
2018-09-06T03:49:27.536Z,16.03
2018-09-06T03:52:02.652Z,16.90
2018-09-06T03:54:37.621Z,14.87
2018-09-06T03:57:12.093Z,19.73
2018-09-06T03:59:46.542Z,16.70
2018-09-06T04:02:20.918Z,16.30
2018-09-06T04:04:55.290Z,17.30
2018-09-06T04:07:29.677Z,18.50
2018-09-06T04:10:04.168Z,16.93
2018-09-06T04:12:38.601Z,15.77
2018-09-06T04:15:12.961Z,18.07
2018-09-06T04:17:47.378Z,18.03
2018-09-06T04:20:21.849Z,18.70
2018-09-06T04:22:56.239Z,18.97
2018-09-06T04:25:30.614Z,16.17
2018-09-06T04:28:05.132Z,17.97
2018-09-06T04:30:39.622Z,17.77
2018-09-06T04:33:14.070Z,17.10
2018-09-06T04:35:48.424Z,18.37
2018-09-06T04:38:22.796Z,19.53
2018-09-06T04:41:00.066Z,19.00
2018-09-06T04:43:34.524Z,21.33
2018-09-06T04:46:08.876Z,18.70
2018-09-06T04:48:43.405Z,18.63
2018-09-06T04:51:17.777Z,18.73
2018-09-06T04:53:52.110Z,18.07
2018-09-06T04:56:26.551Z,18.03
2018-09-06T04:59:01.409Z,18.10
2018-09-06T05:01:35.791Z,17.70
2018-09-06T05:04:10.253Z,19.27
2018-09-06T05:06:44.628Z,14.93
2018-09-06T05:09:18.971Z,16.33
2018-09-06T05:11:53.411Z,14.50
2018-09-06T05:14:27.881Z,16.47
2018-09-06T05:17:03.340Z,17.07
2018-09-06T05:19:37.805Z,18.50
2018-09-06T05:22:12.723Z,15.57
2018-09-06T05:24:48.713Z,17.27
2018-09-06T05:27:23.637Z,16.23
2018-09-06T05:29:58.195Z,18.07
2018-09-06T05:32:33.466Z,16.07
2018-09-06T05:35:08.874Z,16.97
2018-09-06T05:37:44.862Z,15.13
2018-09-06T05:40:19.499Z,16.47
2018-09-06T05:42:54.490Z,17.80
2018-09-06T05:45:28.911Z,16.47
2018-09-06T05:48:03.236Z,17.57
2018-09-06T05:50:37.589Z,20.43
2018-09-06T05:53:12.010Z,16.97
2018-09-06T05:55:46.458Z,18.67
2018-09-06T05:58:20.903Z,16.37
2018-09-06T06:00:55.269Z,16.73
2018-09-06T06:03:29.738Z,16.47
2018-09-06T06:06:04.105Z,15.90
2018-09-06T06:08:44.555Z,21.97
2018-09-06T06:11:19.595Z,17.87
2018-09-06T06:13:53.959Z,17.07
2018-09-06T06:16:28.390Z,17.77
2018-09-06T06:19:02.746Z,19.17
2018-09-06T06:21:37.217Z,17.47
2018-09-06T06:24:11.558Z,17.40
2018-09-06T06:26:46.029Z,15.40
2018-09-06T06:29:20.387Z,17.20
2018-09-06T06:31:54.764Z,16.77
2018-09-06T06:34:29.127Z,16.77
2018-09-06T06:37:03.470Z,14.67
2018-09-06T06:39:37.871Z,14.73
2018-09-06T06:42:12.431Z,16.47
2018-09-06T06:44:46.829Z,14.10
2018-09-06T06:47:21.322Z,15.37
2018-09-06T06:49:55.713Z,14.80
2018-09-06T06:52:30.082Z,12.00
2018-09-06T06:55:04.563Z,14.53
2018-09-06T06:57:38.934Z,13.27
2018-09-06T07:00:13.382Z,13.37
2018-09-06T07:02:47.758Z,12.00
2018-09-06T07:05:22.107Z,13.87
2018-09-06T07:07:56.566Z,13.60
2018-09-06T07:10:30.931Z,12.70
2018-09-06T07:13:05.310Z,12.27
2018-09-06T07:15:39.730Z,14.33
2018-09-06T07:18:14.160Z,14.73
2018-09-06T07:20:48.512Z,11.83
2018-09-06T07:23:22.862Z,11.93
2018-09-06T07:25:58.037Z,13.03
2018-09-06T07:28:32.436Z,11.63
2018-09-06T07:31:06.831Z,13.40
2018-09-06T07:33:41.447Z,10.60
2018-09-06T07:36:15.825Z,12.17
2018-09-06T07:38:50.207Z,11.20
2018-09-06T07:41:24.582Z,11.27
2018-09-06T07:43:58.922Z,10.57
2018-09-06T07:46:33.849Z,10.67
2018-09-06T07:49:08.592Z,10.90
2018-09-06T07:51:42.959Z,11.90
2018-09-06T07:54:17.289Z,10.40
2018-09-06T07:56:51.616Z,10.80
2018-09-06T07:59:26.017Z,10.00
2018-09-06T08:02:00.340Z,12.03
2018-09-06T08:04:34.698Z,10.27
2018-09-06T08:07:09.092Z,9.13
2018-09-06T08:09:43.479Z,10.00
2018-09-06T08:12:17.822Z,10.00
2018-09-06T08:14:52.190Z,9.40
2018-09-06T08:17:26.512Z,9.90
2018-09-06T08:20:00.926Z,10.70
2018-09-06T08:22:35.309Z,9.70
2018-09-06T08:25:09.666Z,10.67
2018-09-06T08:27:44.062Z,9.33
2018-09-06T08:30:18.472Z,9.93
2018-09-06T08:32:52.953Z,10.07
2018-09-06T08:35:28.169Z,9.80
2018-09-06T08:38:02.580Z,9.60
2018-09-06T08:40:36.925Z,10.50
2018-09-06T08:43:11.494Z,10.17
2018-09-06T08:45:45.933Z,9.93
2018-09-06T08:48:20.307Z,9.88
2018-09-06T08:50:54.750Z,9.93
2018-09-06T08:53:29.176Z,9.58
2018-09-06T08:56:03.561Z,9.28
2018-09-06T08:58:37.884Z,10.20
2018-09-06T09:01:17.431Z,10.10
2018-09-06T09:03:51.860Z,9.80
2018-09-06T09:06:26.465Z,10.58
2018-09-06T09:09:00.850Z,10.00
2018-09-06T09:11:35.167Z,10.55
2018-09-06T09:14:10.032Z,10.13
2018-09-06T09:16:44.491Z,11.10
2018-09-06T09:19:18.878Z,10.48
2018-09-06T09:21:53.249Z,9.73
2018-09-06T09:24:27.695Z,11.05
2018-09-06T09:27:02.086Z,9.75
2018-09-06T09:29:36.463Z,10.45
2018-09-06T09:32:10.952Z,10.00
2018-09-06T09:34:45.386Z,12.28
2018-09-06T09:37:19.819Z,9.83
2018-09-06T09:39:54.172Z,10.25
2018-09-06T09:42:28.535Z,10.25
2018-09-06T09:45:02.925Z,10.95
2018-09-06T09:52:45.229Z,10.45
2018-09-06T09:55:19.583Z,11.38
2018-09-06T09:57:53.973Z,11.22
2018-09-06T10:00:33.325Z,11.68
2018-09-06T10:03:12.829Z,9.43
2018-09-06T10:05:51.412Z,10.75
2018-09-06T10:08:30.998Z,9.18
2018-09-06T10:11:05.390Z,9.55
2018-09-06T10:13:39.844Z,9.33
2018-09-06T10:16:18.458Z,9.20
2018-09-06T10:18:52.874Z,9.48
2018-09-06T10:21:27.250Z,10.40
2018-09-06T10:24:01.669Z,9.85
2018-09-06T10:26:37.254Z,9.50
2018-09-06T10:29:11.575Z,9.35
2018-09-06T10:31:46.065Z,9.45
2018-09-06T10:34:20.507Z,10.03
2018-09-06T10:36:55.204Z,9.30
2018-09-06T10:39:29.953Z,10.43
2018-09-06T10:42:05.274Z,10.35
2018-09-06T10:44:39.708Z,10.05
2018-09-06T10:47:14.268Z,9.58
2018-09-06T10:49:50.643Z,9.30
2018-09-06T10:52:26.301Z,11.15
2018-09-06T10:55:08.746Z,10.60
2018-09-06T10:57:44.646Z,10.50
2018-09-06T11:00:19.926Z,9.33
2018-09-06T11:02:54.418Z,9.45
2018-09-06T11:05:29.973Z,9.65
2018-09-06T11:08:08.133Z,9.90
2018-09-06T11:10:42.772Z,10.35
2018-09-06T11:13:17.297Z,9.43
2018-09-06T11:15:51.663Z,10.32
2018-09-06T11:18:26.183Z,9.95
2018-09-06T11:21:00.854Z,9.80
2018-09-06T11:23:54.706Z,10.63
2018-09-06T11:26:29.964Z,9.83
2018-09-06T11:29:04.334Z,9.33
2018-09-06T11:31:38.924Z,9.15
2018-09-06T11:34:13.470Z,9.13
2018-09-06T11:36:50.763Z,9.30
2018-09-06T11:39:25.429Z,8.60
2018-09-06T11:41:59.953Z,8.93
2018-09-06T11:44:34.415Z,9.08
2018-09-06T11:47:08.995Z,8.63
2018-09-06T11:49:43.404Z,10.95
2018-09-06T11:52:17.897Z,8.33
2018-09-06T11:54:52.214Z,8.15
2018-09-06T11:57:26.629Z,9.13
2018-09-06T12:00:01.006Z,8.93
2018-09-06T12:02:44.166Z,8.88
2018-09-06T12:05:18.612Z,8.80
2018-09-06T12:07:53.163Z,7.90
2018-09-06T12:10:27.556Z,8.10
2018-09-06T12:13:02.814Z,8.13
2018-09-06T12:15:39.626Z,8.48
2018-09-06T12:18:14.081Z,6.85
2018-09-06T12:20:48.475Z,7.90
2018-09-06T12:23:22.827Z,8.00
2018-09-06T12:25:57.206Z,7.05
2018-09-06T12:28:31.636Z,7.25
2018-09-06T12:31:06.095Z,7.90
2018-09-06T12:33:40.549Z,7.80
2018-09-06T12:36:14.964Z,8.73
2018-09-06T12:38:49.487Z,6.15
2018-09-06T12:41:23.769Z,8.50
2018-09-06T12:43:58.543Z,8.23
2018-09-06T12:46:32.897Z,6.95
2018-09-06T12:49:07.346Z,8.63
2018-09-06T12:51:41.855Z,8.08
2018-09-06T12:54:16.292Z,7.15
2018-09-06T12:56:50.679Z,7.30
2018-09-06T12:59:25.126Z,7.40
2018-09-06T13:01:59.602Z,7.00
2018-09-06T13:04:33.961Z,7.28
2018-09-06T13:07:08.364Z,8.10
2018-09-06T13:09:42.709Z,8.73
2018-09-06T13:12:17.066Z,7.92
2018-09-06T13:14:51.405Z,6.65
2018-09-06T13:17:25.728Z,9.33
2018-09-06T13:20:00.082Z,6.78
2018-09-06T13:22:34.467Z,8.93
2018-09-06T13:25:08.843Z,7.80
2018-09-06T13:27:43.209Z,7.95
2018-09-06T13:30:17.554Z,7.22
2018-09-06T13:32:51.924Z,9.20
2018-09-06T13:35:26.366Z,6.83
2018-09-06T13:38:00.662Z,7.35
2018-09-06T13:40:35.054Z,9.75
2018-09-06T13:43:09.407Z,7.33
2018-09-06T13:45:43.792Z,8.25
2018-09-06T13:48:18.177Z,6.92
2018-09-06T13:50:52.588Z,8.10
2018-09-06T13:53:26.913Z,8.13
2018-09-06T13:56:01.374Z,8.75
2018-09-06T13:58:35.810Z,9.23
2018-09-06T14:01:10.245Z,8.53
2018-09-06T14:03:44.756Z,16.05
2018-09-06T14:06:19.156Z,12.75
2018-09-06T14:08:53.551Z,7.60
2018-09-06T14:11:27.933Z,9.90
2018-09-06T14:14:02.312Z,16.57
2018-09-06T14:16:36.834Z,18.52
2018-09-06T14:19:11.150Z,12.25
2018-09-06T14:21:45.539Z,21.87
2018-09-06T14:24:19.878Z,13.60
2018-09-06T14:26:54.245Z,12.50
2018-09-06T14:29:28.611Z,11.80
2018-09-06T14:32:03.321Z,8.15
2018-09-06T14:34:37.717Z,9.25
2018-09-06T14:37:12.050Z,9.00
2018-09-06T14:39:46.486Z,7.78
2018-09-06T14:42:20.860Z,8.85
2018-09-06T14:44:55.239Z,7.65
2018-09-06T14:47:29.559Z,8.03
2018-09-06T14:50:04.141Z,8.30
2018-09-06T14:52:38.549Z,23.47
2018-09-06T14:55:12.903Z,26.65
2018-09-06T14:57:47.444Z,11.78
2018-09-06T15:00:21.820Z,8.83
2018-09-06T15:02:56.157Z,7.75
2018-09-06T15:05:30.485Z,8.38
2018-09-06T15:08:04.979Z,7.62
2018-09-06T15:10:39.239Z,8.25
2018-09-06T15:13:13.654Z,9.48
2018-09-06T15:15:48.045Z,8.15
2018-09-06T15:18:22.382Z,8.20
2018-09-06T15:20:56.769Z,8.33
2018-09-06T15:23:31.136Z,7.70
2018-09-06T15:26:05.473Z,8.10
2018-09-06T15:28:39.787Z,7.65
2018-09-06T15:31:14.078Z,9.70
2018-09-06T15:33:48.454Z,8.10
2018-09-06T15:36:22.846Z,8.13
2018-09-06T15:38:57.247Z,7.53
2018-09-06T15:41:31.661Z,9.18
2018-09-06T15:44:06.392Z,7.42
2018-09-06T15:46:40.738Z,8.35
2018-09-06T15:49:15.494Z,11.83
2018-09-06T15:51:49.836Z,7.75
2018-09-06T15:54:24.293Z,9.33
2018-09-06T15:56:58.698Z,8.65
2018-09-06T15:59:33.137Z,8.00
2018-09-06T16:02:07.518Z,8.58
2018-09-06T16:04:41.906Z,7.85
2018-09-06T16:07:16.258Z,10.50
2018-09-06T16:09:50.623Z,10.53
2018-09-06T16:12:25.006Z,8.95
2018-09-06T16:14:59.392Z,8.48
2018-09-06T16:17:33.706Z,9.58
2018-09-06T16:20:08.302Z,8.03
2018-09-06T16:22:43.079Z,8.50
2018-09-06T16:25:17.434Z,8.95
2018-09-06T16:27:51.831Z,9.70
2018-09-06T16:30:26.277Z,8.85
2018-09-06T16:33:00.634Z,7.53
2018-09-06T16:35:35.112Z,12.15
2018-09-06T16:38:09.473Z,8.25
2018-09-06T16:40:43.818Z,8.00
2018-09-06T16:43:18.202Z,8.65
2018-09-06T16:45:52.580Z,10.08
2018-09-06T16:48:26.943Z,10.80
2018-09-06T16:51:01.313Z,9.23
2018-09-06T16:53:35.707Z,9.23
2018-09-06T16:56:10.059Z,9.98
2018-09-06T16:58:44.438Z,9.23
2018-09-06T17:01:21.594Z,10.45
2018-09-06T17:03:55.909Z,8.95
2018-09-06T17:06:30.302Z,11.18
2018-09-06T17:09:05.899Z,8.83
2018-09-06T17:11:40.274Z,8.50
2018-09-06T17:14:14.629Z,8.43
2018-09-06T17:16:49.026Z,10.82
2018-09-06T17:19:23.466Z,11.20
2018-09-06T17:21:58.142Z,9.90
2018-09-06T17:24:32.502Z,9.05
2018-09-06T17:27:06.864Z,12.43
2018-09-06T17:29:41.166Z,11.48
2018-09-06T17:32:15.642Z,11.33
2018-09-06T17:34:49.987Z,9.60
2018-09-06T17:37:24.350Z,9.85
2018-09-06T17:39:58.722Z,10.72
2018-09-06T17:42:33.945Z,9.48
2018-09-06T17:45:08.415Z,12.55
2018-09-06T17:47:42.894Z,11.53
2018-09-06T17:50:17.194Z,9.73
2018-09-06T17:52:51.695Z,10.60
2018-09-06T17:55:26.079Z,10.83
2018-09-06T17:58:00.470Z,10.03
2018-09-06T18:00:35.003Z,9.63
2018-09-06T18:03:09.437Z,10.57
2018-09-06T18:05:43.802Z,10.00
2018-09-06T18:08:18.187Z,10.80
2018-09-06T18:10:52.592Z,10.90
2018-09-06T18:13:26.977Z,9.30
2018-09-06T18:16:01.386Z,9.60
2018-09-06T18:18:35.769Z,12.57
2018-09-06T18:21:10.241Z,11.83
2018-09-06T18:23:44.882Z,14.47
2018-09-06T18:26:19.262Z,16.13
2018-09-06T18:28:53.668Z,16.30
2018-09-06T18:31:28.041Z,14.57
2018-09-06T18:34:03.269Z,12.53
2018-09-06T18:36:37.634Z,12.67
2018-09-06T18:39:12.846Z,11.60
2018-09-06T18:41:47.437Z,12.77
2018-09-06T18:44:21.750Z,11.93
2018-09-06T18:46:56.486Z,11.73
2018-09-06T18:49:30.981Z,12.53
2018-09-06T18:52:05.346Z,13.07
2018-09-06T18:54:39.710Z,12.10
2018-09-06T18:57:14.679Z,12.43
2018-09-06T18:59:49.110Z,12.67
2018-09-06T19:02:23.684Z,13.23
2018-09-06T19:04:58.066Z,18.27
2018-09-06T19:07:32.487Z,14.20
2018-09-06T19:10:06.958Z,16.03
2018-09-06T19:12:41.610Z,19.10
2018-09-06T19:15:16.061Z,15.33
2018-09-06T19:17:50.540Z,15.47
2018-09-06T19:20:25.839Z,15.33
2018-09-06T19:23:00.231Z,15.77
2018-09-06T19:25:35.484Z,20.33
2018-09-06T19:28:09.886Z,20.60
2018-09-06T19:30:44.303Z,25.10
2018-09-06T19:33:19.629Z,22.30
2018-09-06T19:35:53.973Z,22.10
2018-09-06T19:38:28.366Z,21.47
2018-09-06T19:41:02.770Z,19.10
2018-09-06T19:43:37.803Z,18.57
2018-09-06T19:46:12.141Z,15.73
2018-09-06T19:48:46.529Z,17.70
2018-09-06T19:51:20.942Z,15.37
2018-09-06T19:53:55.458Z,16.23
2018-09-06T19:56:29.838Z,16.80
2018-09-06T19:59:04.348Z,17.53
2018-09-06T20:01:40.262Z,16.83
2018-09-06T20:04:14.688Z,20.97
2018-09-06T20:06:49.364Z,20.77
2018-09-06T20:09:23.705Z,21.83
2018-09-06T20:11:58.188Z,18.63
2018-09-06T20:14:32.511Z,20.20
2018-09-06T20:17:06.972Z,18.67
2018-09-06T20:19:41.334Z,20.20
2018-09-06T20:22:16.341Z,19.40
2018-09-06T20:24:50.688Z,22.13
2018-09-06T20:27:25.070Z,17.37
2018-09-06T20:29:59.699Z,19.53
2018-09-06T20:32:34.038Z,21.50
2018-09-06T20:35:08.436Z,21.73
2018-09-06T20:37:42.825Z,24.43
2018-09-06T20:40:17.356Z,21.07
2018-09-06T20:42:52.377Z,23.90
2018-09-06T20:45:27.324Z,22.03
2018-09-06T20:48:01.791Z,20.37
2018-09-06T20:50:36.366Z,20.20
2018-09-06T20:53:10.825Z,22.27
2018-09-06T20:55:45.240Z,20.80
2018-09-06T20:58:19.625Z,20.63
2018-09-06T21:00:54.123Z,22.87
2018-09-06T21:03:28.489Z,17.93
2018-09-06T21:06:03.862Z,17.93
2018-09-06T21:08:38.334Z,18.43
2018-09-06T21:11:12.742Z,15.87
2018-09-06T21:13:47.797Z,17.50
2018-09-06T21:16:22.293Z,15.30
2018-09-06T21:18:56.621Z,16.17
2018-09-06T21:21:31.074Z,14.57
2018-09-06T21:24:05.474Z,14.20
2018-09-06T21:26:40.117Z,14.83
2018-09-06T21:29:14.529Z,15.10
2018-09-06T21:31:49.069Z,14.20
2018-09-06T21:34:23.480Z,12.47
2018-09-06T21:36:57.867Z,14.47
2018-09-06T21:39:32.200Z,13.50
2018-09-06T21:42:06.630Z,14.17
2018-09-06T21:44:41.054Z,13.20
2018-09-06T21:47:15.359Z,16.73
2018-09-06T21:49:49.851Z,12.67
2018-09-06T21:52:24.301Z,14.47
2018-09-06T21:54:58.753Z,13.20
2018-09-06T21:57:33.212Z,14.50
2018-09-06T22:00:07.939Z,14.10
2018-09-06T22:02:47.531Z,13.97
2018-09-06T22:05:21.897Z,16.63
2018-09-06T22:07:56.242Z,15.90
2018-09-06T22:10:30.663Z,15.67
2018-09-06T22:13:05.267Z,13.20
2018-09-06T22:15:39.649Z,12.43
2018-09-06T22:18:14.077Z,13.70
2018-09-06T22:20:48.489Z,14.70
2018-09-06T22:23:22.873Z,13.77
2018-09-06T22:25:57.261Z,13.80
2018-09-06T22:28:31.654Z,13.07
2018-09-06T22:31:06.573Z,14.17
2018-09-06T22:33:40.929Z,13.90
2018-09-06T22:36:15.306Z,13.20
2018-09-06T22:38:49.699Z,14.10
2018-09-06T22:41:24.080Z,17.33
2018-09-06T22:43:58.438Z,14.30
2018-09-06T22:46:32.832Z,16.77
2018-09-06T22:49:07.309Z,16.10
2018-09-06T22:51:41.670Z,13.63
2018-09-06T22:54:16.081Z,14.47
2018-09-06T22:56:50.644Z,16.40
2018-09-06T22:59:25.154Z,15.97
2018-09-06T23:02:00.029Z,14.77
2018-09-06T23:04:34.368Z,13.27
2018-09-06T23:07:08.776Z,16.33
2018-09-06T23:09:43.134Z,15.27
2018-09-06T23:12:17.521Z,13.33
2018-09-06T23:14:51.868Z,14.70
2018-09-06T23:17:26.309Z,16.40
2018-09-06T23:20:00.758Z,17.03
2018-09-06T23:22:39.778Z,13.67
2018-09-06T23:25:14.197Z,14.87
2018-09-06T23:27:48.545Z,12.80
2018-09-06T23:30:22.906Z,12.80
2018-09-06T23:32:57.285Z,14.40
2018-09-06T23:35:31.670Z,15.47
2018-09-06T23:38:06.058Z,14.53
2018-09-06T23:40:44.610Z,15.43
2018-09-06T23:43:19.348Z,13.67
2018-09-06T23:45:55.830Z,14.47
2018-09-06T23:48:30.781Z,15.97
2018-09-06T23:51:05.158Z,15.27
2018-09-06T23:53:39.765Z,13.50
2018-09-06T23:56:14.177Z,13.57
2018-09-06T23:58:48.608Z,12.70
